Startpagina
METAR-TAF:

METAR-TAF

Vliegvelden :

Pian Rosa, Italië

breedte: 45-56N, lengte: 007-42E, hoogte: 3480 m

Actueel weer

Dit bericht is 36 minuten geleden gemaakt, om 01:55 UTC
Wind 5 kt uit het zuiden, variërend tussen het oosten en het westen
Temperatuur 2°C
Vochtigheid 35%
Druk 1031 hPa
Zicht 10 km of meer
geen wolken onder 1500 m en geen cumulonimbus

METAR: LIMH 210155Z 19005KT 100V270 CAVOK 02/M12 Q1031 RMK SKC MON LIB VAL S MAR CLD VIS MIN 9999

Tijdstip: 04:31 (02:31 UTC)


TAF: ontbreekt

Waarnemingen en weersverwachtingen van meer dan 4000 vliegvelden (METAR en TAF).

De beschikbare stations zijn de gele en rode punten op de kaart.

Ga met uw muis naar het station om de naam te zien.

Klik dan om waarnemingen en weersverwachtingen te zien.

kaart wijzigen: klik op de groene knoppen met een zwart kruis om in te zoomen, op de groene knop met een streepje om uit te zoomen of op de groene pijlen voor aangrenzende kaarten.


METAR-TAF: